Terminal Aerodrome Forecast
Issued by NWS

Home | Current Version | Previous Version | Text Only | Print | Product List | Glossary On
Versions: 1 2 3 4 5 6 7 8 9 10 11 12 13 14 15 16 17 18 19
000
FTUS44 KLZK 301148 AAA
TAFLIT
TAF AMD
KLIT 301148Z 3012/0112 17010G18KT P6SM VCSH SCT020 BKN060
      WS020/18045KT
      TEMPO 3012/3016 BKN020
     FM301600 19010G18KT P6SM BKN025
     FM302000 20008KT P6SM VCSH SCT035 BKN060
     FM010300 27006KT P6SM SCT060 BKN250=

USA.gov is the U.S. government's official web portal to all federal, state and local government web resources and services.